Airfield :
LOGIN :

Register | Disclaimer

   EN    FR    IT 

 










Legend :    VFR   Marginal VFR   IFR   Intensive IFR   Very Intensive IFR
Visi :
Ceiling :
>= 8 km
>= 3000ft
5 to 8 km
1000 to 3000 ft
1500m to 5 km
500 to 1000 ft
800 to 1500m
200 to 500 ft
< 800m
< 200 ft
Symbols :   Thunderstorms  Fog  Heavy snow  Heavy precipitations  Wind > 20 kt
SIGMETs :     Misc.  Thunderstorms  Icing  Turbulence  Mountain Waves  Volcanic Ashes







- Airport Elevation : 10 ft
- IATA code : MOL


ENML - Molde

CURRENT METAR :
  • 231520Z 27012KT 240V300 9999 VCSH FEW018CB SCT029 BKN045 08/03 Q1007

EXPIRED METARs :
  • 231450Z 28017G31KT 9999 SHRA FEW018CB SCT027 BKN040 08/02 Q1007
  • 231420Z 27014KT 9999 VCSH FEW015 BKN036 08/02 Q1006
  • 231350Z 28014KT 260V320 9999 -SHRA FEW018 SCT028 BKN040 08/03 Q1006
  • 231320Z 29012KT 250V330 9999 -SHRA FEW017 SCT028 BKN038 08/03 Q1006
  • 231250Z 28012KT 9999 SHRA FEW015 SCT025 BKN035 06/03 Q1005

TAF TAF ENML
Valid from the 23 at 15:00 until the 23 at 22:00 UTC


231400Z 2315/2322 26012KT 9999 -SHRA FEW020TCU BKN040
TEMPO 2315/2322 26018G28KT 4000 SHRAGS BKN020CB
No reported NOTAMs for that airfield.



MET'MAP, your aeronautical weather chart ! - Copyright ORBIFLY December 2007 - Disclaimer

ORBIFLY MET'MAP TEAM :

Programming & Development : Alexandra Zaïnal
Concept & Development : Baudouin d'Aumeries
Co-Development & Prog : Marc-Olivier Méhu
Technical & hardware support : Manuel Goepfert

Contact : metmap@orbifly.com




SOURCES & CREDITS :

   NOAA